createdAt,value
2023-06-13T00:00:49.028Z,26.71
2023-06-13T00:01:49.070Z,26.74
2023-06-13T00:02:49.170Z,26.73
2023-06-13T00:03:49.339Z,26.75
2023-06-13T00:04:49.372Z,26.73
2023-06-13T00:05:49.316Z,26.73
2023-06-13T00:06:49.406Z,26.71
2023-06-13T00:07:49.465Z,26.73
2023-06-13T00:08:49.498Z,26.73
2023-06-13T00:09:49.565Z,26.70
2023-06-13T00:10:49.711Z,26.73
2023-06-13T00:11:49.677Z,26.74
2023-06-13T00:12:49.814Z,26.74
2023-06-13T00:13:49.809Z,26.71
2023-06-13T00:14:50.854Z,26.73
2023-06-13T00:15:49.926Z,26.73
2023-06-13T00:16:50.046Z,26.75
2023-06-13T00:17:50.113Z,26.73
2023-06-13T00:18:50.207Z,26.73
2023-06-13T00:19:50.184Z,26.71
2023-06-13T00:20:50.256Z,26.71
2023-06-13T00:21:50.312Z,26.71
2023-06-13T00:22:50.373Z,26.71
2023-06-13T00:23:50.487Z,26.73
2023-06-13T00:24:50.549Z,26.74
2023-06-13T00:25:50.563Z,26.71
2023-06-13T00:26:50.608Z,26.71
2023-06-13T00:27:50.657Z,26.70
2023-06-13T00:28:50.704Z,26.71
2023-06-13T00:29:50.767Z,26.73
2023-06-13T00:30:50.869Z,26.71
2023-06-13T00:31:50.883Z,26.71
2023-06-13T00:32:51.001Z,26.70
2023-06-13T00:33:51.004Z,26.71
2023-06-13T00:34:51.072Z,26.71
2023-06-13T00:35:51.138Z,26.71
2023-06-13T00:36:51.184Z,26.68
2023-06-13T00:37:51.246Z,26.68
2023-06-13T00:38:51.325Z,26.68
2023-06-13T00:39:51.377Z,26.68
2023-06-13T00:40:51.433Z,26.68
2023-06-13T00:41:51.491Z,26.70
2023-06-13T00:42:51.603Z,26.70
2023-06-13T00:43:51.612Z,26.70
2023-06-13T00:44:51.639Z,26.68
2023-06-13T00:45:51.684Z,26.70
2023-06-13T00:46:51.757Z,26.65
2023-06-13T00:47:51.816Z,26.70
2023-06-13T00:48:51.938Z,26.68
2023-06-13T00:49:51.916Z,26.67
2023-06-13T00:50:52.055Z,26.67
2023-06-13T00:51:52.043Z,26.67
2023-06-13T00:52:52.104Z,26.68
2023-06-13T00:53:52.160Z,26.67
2023-06-13T00:54:52.206Z,26.68
2023-06-13T00:55:52.256Z,26.65
2023-06-13T00:56:52.314Z,26.67
2023-06-13T00:57:52.361Z,26.68
2023-06-13T00:58:52.432Z,26.67
2023-06-13T00:59:52.495Z,26.68
2023-06-13T01:00:52.523Z,26.68
2023-06-13T01:01:52.627Z,26.67
2023-06-13T01:02:52.692Z,26.68
2023-06-13T01:03:52.644Z,26.68
2023-06-13T01:04:52.820Z,26.67
2023-06-13T01:05:52.741Z,26.65
2023-06-13T01:06:52.820Z,26.67
2023-06-13T01:07:52.856Z,26.67
2023-06-13T01:08:52.907Z,26.68
2023-06-13T01:09:52.979Z,26.65
2023-06-13T01:10:53.027Z,26.65
2023-06-13T01:11:53.081Z,26.65
2023-06-13T01:12:53.135Z,26.63
2023-06-13T01:13:53.203Z,26.63
2023-06-13T01:14:53.244Z,26.64
2023-06-13T01:15:53.286Z,26.65
2023-06-13T01:16:53.366Z,26.64
2023-06-13T01:17:53.459Z,26.63
2023-06-13T01:18:53.431Z,26.64
2023-06-13T01:19:53.484Z,26.65
2023-06-13T01:20:53.555Z,26.65
2023-06-13T01:21:53.620Z,26.67
2023-06-13T01:22:53.807Z,26.65
2023-06-13T01:23:53.814Z,26.64
2023-06-13T01:24:53.815Z,26.64
2023-06-13T01:25:53.993Z,26.65
2023-06-13T01:26:53.947Z,26.64
2023-06-13T01:27:53.982Z,26.64
2023-06-13T01:28:54.026Z,26.64
2023-06-13T01:29:54.079Z,26.63
2023-06-13T01:30:54.129Z,26.63
2023-06-13T01:31:54.131Z,26.63
2023-06-13T01:32:54.274Z,26.65
2023-06-13T01:33:54.174Z,26.64
2023-06-13T01:34:54.215Z,26.63
2023-06-13T01:35:54.256Z,26.64
2023-06-13T01:36:54.316Z,26.64
2023-06-13T01:37:54.357Z,26.63
2023-06-13T01:38:54.394Z,26.63
2023-06-13T01:39:54.412Z,26.64
2023-06-13T01:40:54.429Z,26.63
2023-06-13T01:41:54.462Z,26.61
2023-06-13T01:42:54.461Z,26.64
2023-06-13T01:43:54.460Z,26.63
2023-06-13T01:44:54.473Z,26.61
2023-06-13T01:45:54.479Z,26.61
2023-06-13T01:46:54.469Z,26.63
2023-06-13T01:47:54.593Z,26.61
2023-06-13T01:48:54.560Z,26.64
2023-06-13T01:49:54.670Z,26.63
2023-06-13T01:50:54.612Z,26.63
2023-06-13T01:51:54.629Z,26.63
2023-06-13T01:52:54.653Z,26.63
2023-06-13T01:53:54.669Z,26.64
2023-06-13T01:54:54.698Z,26.63
2023-06-13T01:55:55.331Z,26.63
2023-06-13T01:56:54.710Z,26.63
2023-06-13T01:57:54.722Z,26.61
2023-06-13T01:58:54.749Z,26.63
2023-06-13T01:59:54.815Z,26.60
2023-06-13T02:00:54.839Z,26.64
2023-06-13T02:01:54.916Z,26.61
2023-06-13T02:02:55.039Z,26.61
2023-06-13T02:03:55.013Z,26.63
2023-06-13T02:04:54.872Z,26.60
2023-06-13T02:05:54.876Z,26.60
2023-06-13T02:06:54.882Z,26.60
2023-06-13T02:07:54.908Z,26.61
2023-06-13T02:08:54.913Z,26.60
2023-06-13T02:09:54.928Z,26.60
2023-06-13T02:10:54.945Z,26.57
2023-06-13T02:11:54.936Z,26.60
2023-06-13T02:12:54.959Z,26.61
2023-06-13T02:13:54.980Z,26.60
2023-06-13T02:14:55.050Z,26.58
2023-06-13T02:15:55.025Z,26.61
2023-06-13T02:16:55.224Z,26.61
2023-06-13T02:17:55.119Z,26.61
2023-06-13T02:18:55.116Z,26.58
2023-06-13T02:19:55.110Z,26.60
2023-06-13T02:20:55.832Z,26.57
2023-06-13T02:21:55.108Z,26.60
2023-06-13T02:22:55.130Z,26.60
2023-06-13T02:23:55.178Z,26.58
2023-06-13T02:24:55.165Z,26.60
2023-06-13T02:25:55.182Z,26.58
2023-06-13T02:26:55.192Z,26.58
2023-06-13T02:27:55.206Z,26.60
2023-06-13T02:28:55.214Z,26.58
2023-06-13T02:29:55.332Z,26.58
2023-06-13T02:30:55.273Z,26.58
2023-06-13T02:31:55.349Z,26.57
2023-06-13T02:32:55.345Z,26.58
2023-06-13T02:33:55.273Z,26.57
2023-06-13T02:34:55.300Z,26.58
2023-06-13T02:35:55.301Z,26.58
2023-06-13T02:36:55.312Z,26.58
2023-06-13T02:37:55.317Z,26.58
2023-06-13T02:38:55.339Z,26.57
2023-06-13T02:39:55.350Z,26.56
2023-06-13T02:40:55.343Z,26.56
2023-06-13T02:41:55.358Z,26.57
2023-06-13T02:42:55.372Z,26.57
2023-06-13T02:43:55.382Z,26.60
2023-06-13T02:44:55.406Z,26.60
2023-06-13T02:45:55.417Z,26.57
2023-06-13T02:46:55.445Z,26.58
2023-06-13T02:47:55.537Z,26.57
2023-06-13T02:48:55.577Z,26.57
2023-06-13T02:49:55.531Z,26.57
2023-06-13T02:50:55.509Z,26.57
2023-06-13T02:51:56.334Z,26.56
2023-06-13T02:52:55.575Z,26.57
2023-06-13T02:53:55.560Z,26.58
2023-06-13T02:54:55.566Z,26.54
2023-06-13T02:55:55.598Z,26.56
2023-06-13T02:56:55.594Z,26.56
2023-06-13T02:57:55.610Z,26.54
2023-06-13T02:58:55.622Z,26.56
2023-06-13T02:59:55.723Z,26.54
2023-06-13T03:00:55.674Z,26.54
2023-06-13T03:01:55.670Z,26.54
2023-06-13T03:02:55.761Z,26.54
2023-06-13T03:03:55.751Z,26.56
2023-06-13T03:04:55.714Z,26.54
2023-06-13T03:05:55.714Z,26.54
2023-06-13T03:06:55.733Z,26.53
2023-06-13T03:07:55.746Z,26.56
2023-06-13T03:08:55.752Z,26.54
2023-06-13T03:09:55.821Z,26.53
2023-06-13T03:10:55.749Z,26.54
2023-06-13T03:11:55.776Z,26.53
2023-06-13T03:12:55.776Z,26.54
2023-06-13T03:13:55.790Z,26.54
2023-06-13T03:14:55.805Z,26.54
2023-06-13T03:15:55.794Z,26.54
2023-06-13T03:16:55.824Z,26.53
2023-06-13T03:17:55.948Z,26.53
2023-06-13T03:18:55.832Z,26.56
2023-06-13T03:20:03.927Z,26.53
2023-06-13T03:20:56.876Z,26.53
2023-06-13T03:21:55.851Z,26.53
2023-06-13T03:22:55.941Z,26.53
2023-06-13T03:23:55.866Z,26.53
2023-06-13T03:24:55.833Z,26.51
2023-06-13T03:25:55.863Z,26.50
2023-06-13T03:26:55.862Z,26.53
2023-06-13T03:27:55.831Z,26.51
2023-06-13T03:28:55.829Z,26.53
2023-06-13T03:29:55.822Z,26.53
2023-06-13T03:30:55.911Z,26.51
2023-06-13T03:31:55.858Z,26.53
2023-06-13T03:32:55.972Z,26.51
2023-06-13T03:33:55.929Z,26.53
2023-06-13T03:34:55.947Z,26.53
2023-06-13T03:35:58.931Z,26.51
2023-06-13T03:36:56.045Z,26.51
2023-06-13T03:37:56.051Z,26.51
2023-06-13T03:38:55.987Z,26.51
2023-06-13T03:39:55.985Z,26.51
2023-06-13T03:40:55.973Z,26.51
2023-06-13T03:41:56.863Z,26.53
2023-06-13T03:42:55.970Z,26.50
2023-06-13T03:43:56.044Z,26.51
2023-06-13T03:44:55.978Z,26.50
2023-06-13T03:45:55.995Z,26.51
2023-06-13T03:46:55.971Z,26.51
2023-06-13T03:47:56.080Z,26.51
2023-06-13T03:48:56.203Z,26.50
2023-06-13T03:49:55.961Z,26.51
2023-06-13T03:50:55.955Z,26.50
2023-06-13T03:51:56.040Z,26.50
2023-06-13T03:52:55.958Z,26.50
2023-06-13T03:53:56.861Z,26.51
2023-06-13T03:54:55.949Z,26.47
2023-06-13T03:55:55.939Z,26.51
2023-06-13T03:56:55.927Z,26.50
2023-06-13T03:57:56.860Z,26.51
2023-06-13T03:58:55.931Z,26.50
2023-06-13T03:59:55.930Z,26.49
2023-06-13T04:00:56.373Z,26.50
2023-06-13T04:01:55.935Z,26.49
2023-06-13T04:02:55.950Z,26.49
2023-06-13T04:03:55.978Z,26.50
2023-06-13T04:04:55.907Z,26.49
2023-06-13T04:05:56.000Z,26.50
2023-06-13T04:06:55.903Z,26.50
2023-06-13T04:07:55.933Z,26.49
2023-06-13T04:08:56.874Z,26.50
2023-06-13T04:09:55.912Z,26.49
2023-06-13T04:10:55.911Z,26.49
2023-06-13T04:11:55.908Z,26.49
2023-06-13T04:12:55.926Z,26.51
2023-06-13T04:13:55.922Z,26.49
2023-06-13T04:14:55.931Z,26.50
2023-06-13T04:15:55.928Z,26.49
2023-06-13T04:16:55.968Z,26.49
2023-06-13T04:17:55.986Z,26.47
2023-06-13T04:18:55.993Z,26.46
2023-06-13T04:19:55.933Z,26.49
2023-06-13T04:20:55.940Z,26.46
2023-06-13T04:21:55.934Z,26.46
2023-06-13T04:22:55.939Z,26.50
2023-06-13T04:23:56.088Z,26.47
2023-06-13T04:24:55.945Z,26.49
2023-06-13T04:25:56.886Z,26.49
2023-06-13T04:26:55.947Z,26.49
2023-06-13T04:27:55.953Z,26.49
2023-06-13T04:28:55.947Z,26.47
2023-06-13T04:29:55.962Z,26.47
2023-06-13T04:30:55.974Z,26.50
2023-06-13T04:31:56.048Z,26.47
2023-06-13T04:32:56.140Z,26.49
2023-06-13T04:33:56.109Z,26.49
2023-06-13T04:34:56.127Z,26.49
2023-06-13T04:35:56.159Z,26.49
2023-06-13T04:36:56.190Z,26.50
2023-06-13T04:37:56.229Z,26.49
2023-06-13T04:38:56.244Z,26.47
2023-06-13T04:39:56.270Z,26.49
2023-06-13T04:40:56.316Z,26.49
2023-06-13T04:41:56.494Z,26.49
2023-06-13T04:42:56.378Z,26.50
2023-06-13T04:43:56.483Z,26.46
2023-06-13T04:44:56.464Z,26.50
2023-06-13T04:45:56.589Z,26.50
2023-06-13T04:46:56.533Z,26.49
2023-06-13T04:47:58.361Z,26.50
2023-06-13T04:48:56.682Z,26.49
2023-06-13T04:49:56.643Z,26.49
2023-06-13T04:50:56.669Z,26.50
2023-06-13T04:51:56.727Z,26.50
2023-06-13T04:52:56.760Z,26.51
2023-06-13T04:53:56.786Z,26.51
2023-06-13T04:54:56.825Z,26.49
2023-06-13T04:55:56.855Z,26.49
2023-06-13T04:56:56.880Z,26.47
2023-06-13T04:57:56.896Z,26.50
2023-06-13T04:58:57.143Z,26.51
2023-06-13T04:59:56.961Z,26.51
2023-06-13T05:00:56.995Z,26.49
2023-06-13T05:01:57.002Z,26.49
2023-06-13T05:02:57.296Z,26.47
2023-06-13T05:03:59.062Z,26.50
2023-06-13T05:04:57.131Z,26.51
2023-06-13T05:05:57.094Z,26.51
2023-06-13T05:06:57.104Z,26.50
2023-06-13T05:07:57.219Z,26.51
2023-06-13T05:08:57.101Z,26.50
2023-06-13T05:09:57.107Z,26.51
2023-06-13T05:10:57.101Z,26.51
2023-06-13T05:11:57.122Z,26.51
2023-06-13T05:12:57.106Z,26.50
2023-06-13T05:13:57.122Z,26.50
2023-06-13T05:14:57.121Z,26.51
2023-06-13T05:15:57.132Z,26.50
2023-06-13T05:16:57.113Z,26.51
2023-06-13T05:17:59.581Z,26.51
2023-06-13T05:18:57.115Z,26.51
2023-06-13T05:19:57.124Z,26.51
2023-06-13T05:20:57.110Z,26.49
2023-06-13T05:21:57.137Z,26.43
2023-06-13T05:22:57.116Z,26.46
2023-06-13T05:23:57.160Z,26.44
2023-06-13T05:24:57.124Z,26.50
2023-06-13T05:25:57.125Z,26.49
2023-06-13T05:26:57.102Z,26.53
2023-06-13T05:27:57.169Z,26.51
2023-06-13T05:28:57.092Z,26.58
2023-06-13T05:29:57.123Z,26.65
2023-06-13T05:30:57.125Z,26.68
2023-06-13T05:31:57.099Z,26.73
2023-06-13T05:32:57.132Z,26.78
2023-06-13T05:33:57.076Z,26.82
2023-06-13T05:34:57.079Z,26.88
2023-06-13T05:35:58.524Z,26.91
2023-06-13T05:36:57.906Z,26.94
2023-06-13T05:37:57.904Z,26.98
2023-06-13T05:38:57.045Z,26.98
2023-06-13T05:39:57.038Z,27.02
2023-06-13T05:40:57.035Z,27.05
2023-06-13T05:41:57.018Z,27.08
2023-06-13T05:42:57.014Z,27.10
2023-06-13T05:43:57.010Z,27.12
2023-06-13T05:44:56.998Z,27.15
2023-06-13T05:45:56.981Z,27.13
2023-06-13T05:46:56.972Z,27.15
2023-06-13T05:47:57.834Z,27.17
2023-06-13T05:48:56.978Z,27.21
2023-06-13T05:49:56.966Z,27.22
2023-06-13T05:50:56.993Z,27.22
2023-06-13T05:51:57.000Z,27.26
2023-06-13T05:52:57.007Z,27.25
2023-06-13T05:53:57.029Z,27.28
2023-06-13T05:54:57.042Z,27.29
2023-06-13T05:55:57.053Z,27.29
2023-06-13T05:56:57.092Z,27.29
2023-06-13T05:57:57.080Z,27.30
2023-06-13T05:58:57.099Z,27.34
2023-06-13T05:59:57.094Z,27.36
2023-06-13T06:00:57.903Z,27.34
2023-06-13T06:01:57.207Z,27.34
2023-06-13T06:02:57.166Z,27.34
2023-06-13T06:03:57.170Z,27.34
2023-06-13T06:04:57.128Z,27.39
2023-06-13T06:05:57.122Z,27.39
2023-06-13T06:06:57.127Z,27.40
2023-06-13T06:07:57.156Z,27.39
2023-06-13T06:08:57.140Z,27.40
2023-06-13T06:09:57.147Z,27.43
2023-06-13T06:10:57.198Z,27.43
2023-06-13T06:11:57.117Z,27.41
2023-06-13T06:12:57.106Z,27.44
2023-06-13T06:13:57.099Z,27.44
2023-06-13T06:14:57.111Z,27.46
2023-06-13T06:15:57.849Z,27.44
2023-06-13T06:16:57.097Z,27.47
2023-06-13T06:17:57.170Z,27.46
2023-06-13T06:18:57.319Z,27.46
2023-06-13T06:19:57.161Z,27.46
2023-06-13T06:20:57.068Z,27.47
2023-06-13T06:21:57.056Z,27.49
2023-06-13T06:22:57.046Z,27.51
2023-06-13T06:23:57.066Z,27.49
2023-06-13T06:24:57.047Z,27.49
2023-06-13T06:25:57.025Z,27.47
2023-06-13T06:26:57.067Z,27.47
2023-06-13T06:27:57.013Z,27.43
2023-06-13T06:28:57.029Z,27.37
2023-06-13T06:29:57.046Z,27.32
2023-06-13T06:30:57.155Z,27.28
2023-06-13T06:31:57.136Z,27.21
2023-06-13T06:32:57.222Z,27.16
2023-06-13T06:33:57.213Z,27.09
2023-06-13T06:34:57.273Z,26.99
2023-06-13T06:35:57.334Z,26.95
2023-06-13T06:36:57.379Z,26.92
2023-06-13T06:37:57.450Z,26.90
2023-06-13T06:38:57.503Z,26.82
2023-06-13T06:39:57.575Z,26.78
2023-06-13T06:40:57.671Z,26.75
2023-06-13T06:41:57.713Z,26.71
2023-06-13T06:42:57.782Z,26.68
2023-06-13T06:43:57.703Z,26.67
2023-06-13T06:44:57.822Z,26.63
2023-06-13T06:45:57.793Z,26.58
2023-06-13T06:46:58.520Z,26.57
2023-06-13T06:47:57.897Z,26.54
2023-06-13T06:48:57.753Z,26.54
2023-06-13T06:49:57.751Z,26.49
2023-06-13T06:50:57.776Z,26.50
2023-06-13T06:51:57.751Z,26.51
2023-06-13T06:52:57.758Z,26.50
2023-06-13T06:53:57.758Z,26.46
2023-06-13T06:54:57.773Z,26.47
2023-06-13T06:55:57.774Z,26.47
2023-06-13T06:56:57.769Z,26.43
2023-06-13T06:57:57.791Z,26.42
2023-06-13T06:58:57.793Z,26.42
2023-06-13T06:59:57.791Z,26.42
2023-06-13T07:00:57.849Z,26.40
2023-06-13T07:01:58.461Z,26.38
2023-06-13T07:02:57.884Z,26.39
2023-06-13T07:03:57.849Z,26.36
2023-06-13T07:04:57.842Z,26.36
2023-06-13T07:05:57.845Z,26.36
2023-06-13T07:06:57.858Z,26.33
2023-06-13T07:07:57.892Z,26.33
2023-06-13T07:08:57.894Z,26.30
2023-06-13T07:09:57.901Z,26.29
2023-06-13T07:10:57.906Z,26.30
2023-06-13T07:11:57.946Z,26.30
2023-06-13T07:12:57.946Z,26.29
2023-06-13T07:13:57.954Z,26.32
2023-06-13T07:14:57.975Z,26.30
2023-06-13T07:15:58.981Z,26.30
2023-06-13T07:16:57.988Z,26.32
2023-06-13T07:17:58.093Z,26.30
2023-06-13T07:18:58.007Z,26.30
2023-06-13T07:19:58.018Z,26.32
2023-06-13T07:20:58.033Z,26.29
2023-06-13T07:21:58.023Z,26.30
2023-06-13T07:22:58.031Z,26.30
2023-06-13T07:24:07.573Z,26.36
2023-06-13T07:24:59.155Z,26.44
2023-06-13T07:25:58.028Z,26.51
2023-06-13T07:26:58.025Z,26.58
2023-06-13T07:27:58.019Z,26.61
2023-06-13T07:28:58.015Z,26.70
2023-06-13T07:29:58.012Z,26.75
2023-06-13T07:30:57.993Z,26.80
2023-06-13T07:31:58.029Z,26.85
2023-06-13T07:33:00.106Z,26.90
2023-06-13T07:33:58.038Z,26.94
2023-06-13T07:35:04.742Z,26.95
2023-06-13T07:35:58.949Z,27.01
2023-06-13T07:36:57.942Z,27.05
2023-06-13T07:37:57.933Z,27.08
2023-06-13T07:39:00.593Z,27.12
2023-06-13T07:39:57.969Z,27.15
2023-06-13T07:40:57.899Z,27.15
2023-06-13T07:41:57.896Z,27.17
2023-06-13T07:42:57.885Z,27.22
2023-06-13T07:43:57.906Z,27.23
2023-06-13T07:44:57.919Z,27.26
2023-06-13T07:45:57.853Z,27.28
2023-06-13T07:46:57.851Z,27.29
2023-06-13T07:47:57.838Z,27.32
2023-06-13T07:48:57.900Z,27.34
2023-06-13T07:49:57.817Z,27.37
2023-06-13T07:50:57.777Z,27.37
2023-06-13T07:51:57.769Z,27.41
2023-06-13T07:52:57.776Z,27.41
2023-06-13T07:53:57.743Z,27.41
2023-06-13T07:54:57.739Z,27.43
2023-06-13T07:55:57.711Z,27.44
2023-06-13T07:56:57.705Z,27.44
2023-06-13T07:58:00.175Z,27.47
2023-06-13T07:58:57.659Z,27.47
2023-06-13T07:59:57.654Z,27.51
2023-06-13T08:00:57.645Z,27.51
2023-06-13T08:01:57.649Z,27.51
2023-06-13T08:02:57.752Z,27.54
2023-06-13T08:03:57.766Z,27.54
2023-06-13T08:04:57.658Z,27.56
2023-06-13T08:05:57.528Z,27.57
2023-06-13T08:06:57.498Z,27.57
2023-06-13T08:07:57.469Z,27.60
2023-06-13T08:08:57.457Z,27.61
2023-06-13T08:09:57.442Z,27.60
2023-06-13T08:10:57.403Z,27.60
2023-06-13T08:11:57.467Z,27.62
2023-06-13T08:12:57.373Z,27.64
2023-06-13T08:13:57.385Z,27.61
2023-06-13T08:14:57.330Z,27.65
2023-06-13T08:15:57.467Z,27.67
2023-06-13T08:16:57.282Z,27.65
2023-06-13T08:17:57.283Z,27.64
2023-06-13T08:18:57.991Z,27.65
2023-06-13T08:19:57.486Z,27.60
2023-06-13T08:20:57.202Z,27.60
2023-06-13T08:21:57.188Z,27.58
2023-06-13T08:22:57.159Z,27.58
2023-06-13T08:23:57.175Z,27.57
2023-06-13T08:24:57.470Z,27.57
2023-06-13T08:25:57.250Z,27.58
2023-06-13T08:26:57.273Z,27.57
2023-06-13T08:27:57.058Z,27.60
2023-06-13T08:28:57.042Z,27.58
2023-06-13T08:29:57.524Z,27.61
2023-06-13T08:31:10.427Z,27.62
2023-06-13T08:31:58.079Z,27.64
2023-06-13T08:32:57.028Z,27.67
2023-06-13T08:34:08.842Z,27.67
2023-06-13T08:34:57.935Z,27.67
2023-06-13T08:35:56.916Z,27.67
2023-06-13T08:36:56.938Z,27.67
2023-06-13T08:37:56.866Z,27.68
2023-06-13T08:38:56.875Z,27.68
2023-06-13T08:39:56.822Z,27.68
2023-06-13T08:40:56.843Z,27.72
2023-06-13T08:41:56.773Z,27.74
2023-06-13T08:42:56.769Z,27.77
2023-06-13T08:43:56.812Z,27.75
2023-06-13T08:44:56.853Z,27.78
2023-06-13T08:45:56.864Z,27.83
2023-06-13T08:46:56.964Z,27.81
2023-06-13T08:47:57.084Z,27.83
2023-06-13T08:48:56.976Z,27.83
2023-06-13T08:49:57.014Z,27.85
2023-06-13T08:50:57.047Z,27.83
2023-06-13T08:51:57.160Z,27.78
2023-06-13T08:52:57.138Z,27.78
2023-06-13T08:53:57.285Z,27.80
2023-06-13T08:55:34.495Z,27.81
2023-06-13T08:56:04.487Z,27.85
2023-06-13T08:56:58.332Z,27.85
2023-06-13T08:57:57.118Z,27.87
2023-06-13T08:58:57.979Z,27.88
2023-06-13T08:59:57.054Z,27.89
2023-06-13T09:00:57.078Z,27.88
2023-06-13T09:01:57.002Z,27.89
2023-06-13T09:02:57.147Z,27.93
2023-06-13T09:03:57.001Z,27.91
2023-06-13T09:04:59.172Z,27.91
2023-06-13T09:05:56.892Z,27.91
2023-06-13T09:06:56.869Z,27.93
2023-06-13T09:08:05.123Z,27.92
2023-06-13T09:08:57.822Z,27.92
2023-06-13T09:09:56.823Z,27.93
2023-06-13T09:10:56.896Z,27.93
2023-06-13T09:11:56.835Z,27.95
2023-06-13T09:12:56.713Z,27.96
2023-06-13T09:13:56.703Z,27.96
2023-06-13T09:14:56.652Z,27.96
2023-06-13T09:15:56.626Z,27.98
2023-06-13T09:16:56.676Z,27.98
2023-06-13T09:18:56.605Z,27.99
2023-06-13T09:19:56.576Z,28.01
2023-06-13T09:20:56.577Z,28.02
2023-06-13T09:21:56.584Z,28.03
2023-06-13T09:22:56.576Z,28.03
2023-06-13T09:23:56.671Z,28.06
2023-06-13T09:24:56.586Z,28.08
2023-06-13T09:25:56.639Z,28.08
2023-06-13T09:26:56.587Z,28.08
2023-06-13T09:27:58.047Z,28.09
2023-06-13T09:28:56.607Z,28.08
2023-06-13T09:29:56.619Z,28.08
2023-06-13T09:30:56.681Z,28.09
2023-06-13T09:31:56.645Z,28.08
2023-06-13T09:32:56.701Z,28.08
2023-06-13T09:33:56.682Z,28.10
2023-06-13T09:34:56.691Z,28.09
2023-06-13T09:35:58.224Z,28.10
2023-06-13T09:36:56.712Z,28.12
2023-06-13T09:37:56.648Z,28.10
2023-06-13T09:38:56.629Z,28.10
2023-06-13T09:40:16.439Z,28.12
2023-06-13T09:40:57.577Z,28.12
2023-06-13T09:41:56.542Z,28.12
2023-06-13T09:43:05.042Z,28.10
2023-06-13T09:43:57.472Z,28.12
2023-06-13T09:44:58.982Z,28.10
2023-06-13T09:45:56.709Z,28.16
2023-06-13T09:46:56.856Z,28.13
2023-06-13T09:47:56.682Z,28.15
2023-06-13T09:48:56.664Z,28.15
2023-06-13T09:49:57.207Z,28.16
2023-06-13T09:50:56.667Z,28.18
2023-06-13T09:51:56.669Z,28.16
2023-06-13T09:52:56.689Z,28.15
2023-06-13T09:53:56.681Z,28.18
2023-06-13T09:54:56.699Z,28.18
2023-06-13T09:55:56.697Z,28.20
2023-06-13T09:56:56.700Z,28.19
2023-06-13T09:58:18.288Z,28.20
2023-06-13T09:58:57.684Z,28.22
2023-06-13T09:59:56.659Z,28.19
2023-06-13T10:00:56.634Z,28.19
2023-06-13T10:01:56.612Z,28.20
2023-06-13T10:02:59.713Z,28.20
2023-06-13T10:03:57.541Z,28.22
2023-06-13T10:04:56.572Z,28.22
2023-06-13T10:05:56.476Z,28.23
2023-06-13T10:06:56.505Z,28.24
2023-06-13T10:07:56.402Z,28.23
2023-06-13T10:08:56.396Z,28.24
2023-06-13T10:09:56.342Z,28.26
2023-06-13T10:10:56.320Z,28.32
2023-06-13T10:11:56.331Z,28.30
2023-06-13T10:12:57.000Z,28.32
2023-06-13T10:13:56.225Z,28.28
2023-06-13T10:14:56.163Z,28.28
2023-06-13T10:15:56.187Z,28.33
2023-06-13T10:17:07.701Z,28.33
2023-06-13T10:17:57.141Z,28.30
2023-06-13T10:18:56.071Z,28.30
2023-06-13T10:19:56.007Z,28.30
2023-06-13T10:20:55.964Z,28.28
2023-06-13T10:21:55.989Z,28.28
2023-06-13T10:22:55.905Z,28.28
2023-06-13T10:23:55.935Z,28.26
2023-06-13T10:24:55.860Z,28.24
2023-06-13T10:25:56.736Z,28.24
2023-06-13T10:26:55.781Z,28.23
2023-06-13T10:27:56.548Z,28.20
2023-06-13T10:28:55.766Z,28.22
2023-06-13T10:29:55.675Z,28.19
2023-06-13T10:30:55.700Z,28.18
2023-06-13T10:31:55.747Z,28.19
2023-06-13T10:32:55.741Z,28.19
2023-06-13T10:33:55.721Z,28.16
2023-06-13T10:34:55.814Z,28.15
2023-06-13T10:35:55.742Z,28.15
2023-06-13T10:36:58.347Z,28.13
2023-06-13T10:37:56.726Z,28.12
2023-06-13T10:38:56.527Z,28.09
2023-06-13T10:39:55.671Z,28.12
2023-06-13T10:40:55.637Z,28.09
2023-06-13T10:41:55.620Z,28.09
2023-06-13T10:42:55.607Z,28.09
2023-06-13T10:43:55.565Z,28.09
2023-06-13T10:44:55.534Z,28.08
2023-06-13T10:45:55.541Z,28.06
2023-06-13T10:46:55.484Z,28.08
2023-06-13T10:47:55.473Z,28.06
2023-06-13T10:48:55.472Z,28.08
2023-06-13T10:49:55.495Z,28.05
2023-06-13T10:50:55.521Z,28.03
2023-06-13T10:51:55.551Z,28.03
2023-06-13T10:52:55.564Z,28.02
2023-06-13T10:53:55.603Z,28.05
2023-06-13T10:54:55.632Z,28.05
2023-06-13T10:55:55.662Z,28.02
2023-06-13T10:56:55.669Z,28.03
2023-06-13T10:57:55.720Z,28.03
2023-06-13T10:58:55.732Z,28.01
2023-06-13T10:59:55.769Z,28.01
2023-06-13T11:00:55.819Z,28.01
2023-06-13T11:01:55.831Z,28.02
2023-06-13T11:02:55.989Z,27.99
2023-06-13T11:03:55.930Z,27.99
2023-06-13T11:04:55.952Z,27.99
2023-06-13T11:05:56.042Z,27.99
2023-06-13T11:06:56.006Z,28.01
2023-06-13T11:07:56.037Z,27.99
2023-06-13T11:08:56.087Z,27.99
2023-06-13T11:09:56.181Z,27.98
2023-06-13T11:10:56.148Z,27.96
2023-06-13T11:11:56.192Z,27.96
2023-06-13T11:12:56.211Z,27.96
2023-06-13T11:13:56.279Z,27.98
2023-06-13T11:15:56.354Z,27.98
2023-06-13T11:16:56.459Z,27.96
2023-06-13T11:17:56.486Z,27.95
2023-06-13T11:18:56.481Z,27.95
2023-06-13T11:19:56.489Z,27.95
2023-06-13T11:20:56.512Z,27.96
2023-06-13T11:21:56.606Z,27.96
2023-06-13T11:22:56.580Z,27.96
2023-06-13T11:23:56.699Z,27.93
2023-06-13T11:24:56.669Z,27.95
2023-06-13T11:25:56.771Z,27.95
2023-06-13T11:26:56.743Z,27.93
2023-06-13T11:27:56.822Z,27.95
2023-06-13T11:28:56.822Z,27.95
2023-06-13T11:29:56.872Z,27.96
2023-06-13T11:30:56.902Z,27.91
2023-06-13T11:31:57.004Z,27.92
2023-06-13T11:32:57.025Z,27.93
2023-06-13T11:33:57.023Z,27.93
2023-06-13T11:34:57.044Z,27.92
2023-06-13T11:35:57.082Z,27.92
2023-06-13T11:36:57.112Z,27.92
2023-06-13T11:37:58.031Z,27.89
2023-06-13T11:38:57.213Z,27.93
2023-06-13T11:40:17.829Z,27.92
2023-06-13T11:40:58.216Z,27.91
2023-06-13T11:41:57.178Z,27.89
2023-06-13T11:42:57.137Z,27.91
2023-06-13T11:43:57.171Z,27.93
2023-06-13T11:44:57.082Z,27.92
2023-06-13T11:45:57.058Z,27.93
2023-06-13T11:46:57.062Z,27.92
2023-06-13T11:47:57.106Z,27.92
2023-06-13T11:48:57.218Z,27.93
2023-06-13T11:49:57.463Z,27.92
2023-06-13T11:50:57.012Z,27.93
2023-06-13T11:51:57.052Z,27.91
2023-06-13T11:52:57.193Z,27.92
2023-06-13T11:53:57.133Z,27.91
2023-06-13T11:54:57.176Z,27.92
2023-06-13T11:55:57.282Z,27.89
2023-06-13T11:56:57.240Z,27.88
2023-06-13T11:57:57.276Z,27.92
2023-06-13T11:58:57.329Z,27.92
2023-06-13T11:59:57.370Z,27.91
2023-06-13T12:00:57.394Z,27.91
2023-06-13T12:01:57.478Z,27.92
2023-06-13T12:02:57.776Z,27.93
2023-06-13T12:03:57.686Z,27.92
2023-06-13T12:04:57.684Z,27.91
2023-06-13T12:05:57.586Z,27.93
2023-06-13T12:06:57.619Z,27.92
2023-06-13T12:07:57.728Z,27.93
2023-06-13T12:08:57.714Z,27.91
2023-06-13T12:09:57.732Z,27.95
2023-06-13T12:10:58.042Z,27.93
2023-06-13T12:11:57.813Z,27.95
2023-06-13T12:12:57.833Z,27.93
2023-06-13T12:13:57.870Z,27.95
2023-06-13T12:14:57.904Z,27.93
2023-06-13T12:15:57.939Z,27.96
2023-06-13T12:16:58.001Z,27.93
2023-06-13T12:17:58.578Z,27.95
2023-06-13T12:18:58.035Z,27.96
2023-06-13T12:19:58.123Z,27.96
2023-06-13T12:20:58.091Z,27.96
2023-06-13T12:21:58.170Z,27.96
2023-06-13T12:22:58.171Z,27.98
2023-06-13T12:23:58.270Z,27.96
2023-06-13T12:24:58.293Z,27.98
2023-06-13T12:25:58.272Z,27.98
2023-06-13T12:26:58.298Z,27.99
2023-06-13T12:27:58.322Z,27.96
2023-06-13T12:29:00.616Z,27.96
2023-06-13T12:29:58.358Z,27.96
2023-06-13T12:30:58.408Z,27.95
2023-06-13T12:31:58.303Z,27.95
2023-06-13T12:32:58.506Z,27.93
2023-06-13T12:33:58.222Z,27.93
2023-06-13T12:34:59.314Z,27.96
2023-06-13T12:35:58.194Z,27.95
2023-06-13T12:36:58.236Z,27.95
2023-06-13T12:37:58.140Z,27.96
2023-06-13T12:38:58.112Z,27.96
2023-06-13T12:39:58.095Z,27.95
2023-06-13T12:40:59.584Z,27.96
2023-06-13T12:41:58.045Z,27.95
2023-06-13T12:42:58.045Z,27.95
2023-06-13T12:43:58.001Z,27.96
2023-06-13T12:44:58.564Z,27.96
2023-06-13T12:45:57.963Z,27.95
2023-06-13T12:46:57.949Z,27.95
2023-06-13T12:47:57.977Z,27.95
2023-06-13T12:48:57.874Z,27.95
2023-06-13T12:49:57.900Z,27.95
2023-06-13T12:50:57.948Z,27.93
2023-06-13T12:51:57.970Z,27.93
2023-06-13T12:52:58.010Z,27.91
2023-06-13T12:53:58.084Z,27.92
2023-06-13T12:54:58.066Z,27.92